createdAt,value
2022-08-01T00:00:29.175Z,3.50
2022-08-01T00:01:29.144Z,4.30
2022-08-01T00:02:29.228Z,2.70
2022-08-01T00:03:29.115Z,4.10
2022-08-01T00:04:29.105Z,8.80
2022-08-01T00:05:29.135Z,7.00
2022-08-01T00:06:29.085Z,2.90
2022-08-01T00:07:29.064Z,4.60
2022-08-01T00:08:29.063Z,7.20
2022-08-01T00:09:29.044Z,5.50
2022-08-01T00:10:29.048Z,4.30
2022-08-01T00:11:29.044Z,3.30
2022-08-01T00:12:29.004Z,4.10
2022-08-01T00:13:28.984Z,3.40
2022-08-01T00:14:32.149Z,4.50
2022-08-01T00:15:28.965Z,3.30
2022-08-01T00:16:28.944Z,5.20
2022-08-01T00:17:28.934Z,5.00
2022-08-01T00:18:28.928Z,4.90
2022-08-01T00:19:28.906Z,4.50
2022-08-01T00:20:28.905Z,5.50
2022-08-01T00:21:28.886Z,4.30
2022-08-01T00:22:28.875Z,5.10
2022-08-01T00:23:28.865Z,6.20
2022-08-01T00:24:28.857Z,4.20
2022-08-01T00:25:33.648Z,3.60
2022-08-01T00:26:29.817Z,6.00
2022-08-01T00:27:28.801Z,8.10
2022-08-01T00:28:28.788Z,5.30
2022-08-01T00:30:09.734Z,4.50
2022-08-01T00:30:29.780Z,6.00
2022-08-01T00:31:28.755Z,3.40
2022-08-01T00:32:28.735Z,3.80
2022-08-01T00:33:28.718Z,4.20
2022-08-01T00:34:28.705Z,4.80
2022-08-01T00:35:28.705Z,6.20
2022-08-01T00:36:28.704Z,4.30
2022-08-01T00:37:28.673Z,3.20
2022-08-01T00:38:28.668Z,4.30
2022-08-01T00:39:28.647Z,5.30
2022-08-01T00:40:28.636Z,6.70
2022-08-01T00:41:28.620Z,6.80
2022-08-01T00:42:28.608Z,8.70
2022-08-01T00:43:28.585Z,4.50
2022-08-01T00:44:28.566Z,4.30
2022-08-01T00:45:28.565Z,6.30
2022-08-01T00:46:28.555Z,4.90
2022-08-01T00:47:28.534Z,4.30
2022-08-01T00:48:28.515Z,9.10
2022-08-01T00:49:28.541Z,6.00
2022-08-01T00:50:28.507Z,5.50
2022-08-01T00:51:28.477Z,6.10
2022-08-01T00:52:28.466Z,3.20
2022-08-01T00:53:28.445Z,6.10
2022-08-01T00:54:29.463Z,6.70
2022-08-01T00:55:28.455Z,6.60
2022-08-01T00:56:28.416Z,6.60
2022-08-01T00:58:02.466Z,8.10
2022-08-01T00:58:29.396Z,7.50
2022-08-01T00:59:28.378Z,4.90
2022-08-01T01:00:28.435Z,8.10
2022-08-01T01:01:36.240Z,7.20
2022-08-01T01:02:29.337Z,6.10
2022-08-01T01:03:57.599Z,14.50
2022-08-01T01:04:29.316Z,5.60
2022-08-01T01:05:28.296Z,7.30
2022-08-01T01:06:29.064Z,7.80
2022-08-01T01:07:28.270Z,6.60
2022-08-01T01:08:28.268Z,4.80
2022-08-01T01:09:28.246Z,7.00
2022-08-01T01:10:28.257Z,6.10
2022-08-01T01:11:28.217Z,6.80
2022-08-01T01:12:28.206Z,4.80
2022-08-01T01:13:28.188Z,3.70
2022-08-01T01:14:28.176Z,5.20
2022-08-01T01:15:28.166Z,4.70
2022-08-01T01:16:28.149Z,8.20
2022-08-01T01:17:42.345Z,6.10
2022-08-01T01:18:29.118Z,6.10
2022-08-01T01:19:28.107Z,6.10
2022-08-01T01:20:28.135Z,8.10
2022-08-01T01:21:28.077Z,5.10
2022-08-01T01:22:28.067Z,6.50
2022-08-01T01:23:28.062Z,5.20
2022-08-01T01:24:28.038Z,4.20
2022-08-01T01:25:28.027Z,3.60
2022-08-01T01:26:28.017Z,4.80
2022-08-01T01:27:28.016Z,3.80
2022-08-01T01:28:27.990Z,5.10
2022-08-01T01:29:27.970Z,5.60
2022-08-01T01:30:27.982Z,6.80
2022-08-01T01:31:28.796Z,5.20
2022-08-01T01:32:30.762Z,4.00
2022-08-01T01:33:27.927Z,6.40
2022-08-01T01:34:27.907Z,7.80
2022-08-01T01:35:27.898Z,7.80
2022-08-01T01:36:27.886Z,6.00
2022-08-01T01:37:27.859Z,8.00
2022-08-01T01:38:27.848Z,5.50
2022-08-01T01:39:27.860Z,7.50
2022-08-01T01:40:27.830Z,9.50
2022-08-01T01:41:27.817Z,7.20
2022-08-01T01:42:27.810Z,6.40
2022-08-01T01:43:29.230Z,6.20
2022-08-01T01:44:28.828Z,5.90
2022-08-01T01:45:27.758Z,5.30
2022-08-01T01:46:27.758Z,7.50
2022-08-01T01:47:27.738Z,6.90
2022-08-01T01:48:27.729Z,7.30
2022-08-01T01:49:27.915Z,10.80
2022-08-01T01:50:27.697Z,6.20
2022-08-01T01:51:27.689Z,5.50
2022-08-01T01:52:27.709Z,7.40
2022-08-01T01:53:27.660Z,7.20
2022-08-01T01:54:27.649Z,7.00
2022-08-01T01:55:27.630Z,5.70
2022-08-01T01:56:27.618Z,6.60
2022-08-01T01:57:27.606Z,8.30
2022-08-01T01:58:27.629Z,8.80
2022-08-01T01:59:27.584Z,7.00
2022-08-01T02:00:27.569Z,6.00
2022-08-01T02:01:58.546Z,6.90
2022-08-01T02:02:28.557Z,8.40
2022-08-01T02:03:27.529Z,8.00
2022-08-01T02:04:27.519Z,5.80
2022-08-01T02:05:27.528Z,7.40
2022-08-01T02:06:27.488Z,5.60
2022-08-01T02:07:27.480Z,5.40
2022-08-01T02:08:27.470Z,7.90
2022-08-01T02:09:27.445Z,7.00
2022-08-01T02:10:28.582Z,9.80
2022-08-01T02:11:27.441Z,6.20
2022-08-01T02:12:27.410Z,6.90
2022-08-01T02:13:27.399Z,8.10
2022-08-01T02:14:27.380Z,7.40
2022-08-01T02:15:27.360Z,6.60
2022-08-01T02:16:27.353Z,7.90
2022-08-01T02:17:27.351Z,6.70
2022-08-01T02:18:27.343Z,6.50
2022-08-01T02:19:27.320Z,5.30
2022-08-01T02:20:27.312Z,8.10
2022-08-01T02:21:27.291Z,7.80
2022-08-01T02:22:27.270Z,7.40
2022-08-01T02:23:27.279Z,11.30
2022-08-01T02:24:30.673Z,7.80
2022-08-01T02:25:27.283Z,6.20
2022-08-01T02:26:27.219Z,6.30
2022-08-01T02:27:27.200Z,6.10
2022-08-01T02:28:27.210Z,7.40
2022-08-01T02:29:27.171Z,6.40
2022-08-01T02:30:27.188Z,7.60
2022-08-01T02:31:27.151Z,5.30
2022-08-01T02:32:27.141Z,9.30
2022-08-01T02:33:27.129Z,6.30
2022-08-01T02:34:27.114Z,7.10
2022-08-01T02:35:27.111Z,10.30
2022-08-01T02:36:31.109Z,6.60
2022-08-01T02:37:28.072Z,5.00
2022-08-01T02:38:27.071Z,3.90
2022-08-01T02:39:27.042Z,9.30
2022-08-01T02:40:27.033Z,6.40
2022-08-01T02:41:27.012Z,4.20
2022-08-01T02:42:27.020Z,3.50
2022-08-01T02:43:27.013Z,4.70
2022-08-01T02:44:26.982Z,5.20
2022-08-01T02:45:26.965Z,8.00
2022-08-01T02:46:26.953Z,6.90
2022-08-01T02:47:26.942Z,6.80
2022-08-01T02:48:26.942Z,7.10
2022-08-01T02:49:26.982Z,4.50
2022-08-01T02:50:26.903Z,7.40
2022-08-01T02:51:26.894Z,4.90
2022-08-01T02:52:26.871Z,6.00
2022-08-01T02:53:39.084Z,5.60
2022-08-01T02:54:27.842Z,4.10
2022-08-01T02:55:26.860Z,5.10
2022-08-01T02:56:26.817Z,4.50
2022-08-01T02:57:29.560Z,6.70
2022-08-01T02:58:29.438Z,5.60
2022-08-01T02:59:26.820Z,3.90
2022-08-01T03:00:26.763Z,4.80
2022-08-01T03:01:27.114Z,5.10
2022-08-01T03:02:26.743Z,4.20
2022-08-01T03:03:26.753Z,4.70
2022-08-01T03:04:26.713Z,4.70
2022-08-01T03:05:26.702Z,5.90
2022-08-01T03:06:26.695Z,4.70
2022-08-01T03:07:34.223Z,5.80
2022-08-01T03:08:27.663Z,6.80
2022-08-01T03:09:26.643Z,4.40
2022-08-01T03:10:26.658Z,4.30
2022-08-01T03:11:26.623Z,6.70
2022-08-01T03:12:26.605Z,5.00
2022-08-01T03:13:26.602Z,5.30
2022-08-01T03:14:26.593Z,2.50
2022-08-01T03:15:26.566Z,3.20
2022-08-01T03:16:26.553Z,3.50
2022-08-01T03:17:26.546Z,3.80
2022-08-01T03:18:26.543Z,3.70
2022-08-01T03:19:26.514Z,4.50
2022-08-01T03:20:26.503Z,3.90
2022-08-01T03:21:26.502Z,4.90
2022-08-01T03:22:26.483Z,6.40
2022-08-01T03:23:37.611Z,4.00
2022-08-01T03:24:27.445Z,2.90
2022-08-01T03:25:26.444Z,2.80
2022-08-01T03:26:26.414Z,3.00
2022-08-01T03:27:26.434Z,3.50
2022-08-01T03:28:29.729Z,3.30
2022-08-01T03:29:26.387Z,2.90
2022-08-01T03:30:26.365Z,3.70
2022-08-01T03:31:26.354Z,4.40
2022-08-01T03:32:26.334Z,3.60
2022-08-01T03:33:26.374Z,5.30
2022-08-01T03:34:26.315Z,2.80
2022-08-01T03:35:26.307Z,3.80
2022-08-01T03:36:26.285Z,2.60
2022-08-01T03:37:26.277Z,3.20
2022-08-01T03:38:26.266Z,5.10
2022-08-01T03:39:26.277Z,3.30
2022-08-01T03:40:26.225Z,2.60
2022-08-01T03:41:26.247Z,3.70
2022-08-01T03:42:26.213Z,2.90
2022-08-01T03:43:26.204Z,6.00
2022-08-01T03:44:26.186Z,5.20
2022-08-01T03:45:26.165Z,6.30
2022-08-01T03:46:26.175Z,4.10
2022-08-01T03:47:26.145Z,3.70
2022-08-01T03:48:26.263Z,5.30
2022-08-01T03:49:26.165Z,5.90
2022-08-01T03:50:26.096Z,5.50
2022-08-01T03:51:26.086Z,4.00
2022-08-01T03:52:26.104Z,4.10
2022-08-01T03:53:26.079Z,7.50
2022-08-01T03:54:26.055Z,6.70
2022-08-01T03:55:26.035Z,2.40
2022-08-01T03:56:26.016Z,5.60
2022-08-01T03:57:36.767Z,5.00
2022-08-01T03:58:27.038Z,3.20
2022-08-01T03:59:25.996Z,3.00
2022-08-01T04:00:25.966Z,2.60
2022-08-01T04:01:26.000Z,2.30
2022-08-01T04:02:25.936Z,3.90
2022-08-01T04:03:25.944Z,2.90
2022-08-01T04:04:25.955Z,2.30
2022-08-01T04:05:25.919Z,3.80
2022-08-01T04:06:25.886Z,4.20
2022-08-01T04:07:25.887Z,3.40
2022-08-01T04:08:29.916Z,3.40
2022-08-01T04:09:25.847Z,4.30
2022-08-01T04:10:25.829Z,3.50
2022-08-01T04:11:25.835Z,4.00
2022-08-01T04:12:25.808Z,1.90
2022-08-01T04:13:25.823Z,6.30
2022-08-01T04:14:25.787Z,2.70
2022-08-01T04:15:25.777Z,5.10
2022-08-01T04:16:25.746Z,4.20
2022-08-01T04:17:25.756Z,2.90
2022-08-01T04:18:25.764Z,3.80
2022-08-01T04:19:25.728Z,3.10
2022-08-01T04:20:25.696Z,2.70
2022-08-01T04:21:25.686Z,2.40
2022-08-01T04:22:25.688Z,3.20
2022-08-01T04:23:25.690Z,6.20
2022-08-01T04:24:25.645Z,3.10
2022-08-01T04:25:25.637Z,2.30
2022-08-01T04:26:25.617Z,1.70
2022-08-01T04:27:51.192Z,3.90
2022-08-01T04:28:26.607Z,4.50
2022-08-01T04:29:25.587Z,3.10
2022-08-01T04:30:25.640Z,3.90
2022-08-01T04:31:25.566Z,3.80
2022-08-01T04:32:25.556Z,3.10
2022-08-01T04:33:25.527Z,3.30
2022-08-01T04:34:25.507Z,2.80
2022-08-01T04:36:03.876Z,2.30
2022-08-01T04:36:26.507Z,2.90
2022-08-01T04:37:25.499Z,3.30
2022-08-01T04:38:25.459Z,2.80
2022-08-01T04:39:25.455Z,2.10
2022-08-01T04:40:25.437Z,2.50
2022-08-01T04:41:25.417Z,3.30
2022-08-01T04:42:29.370Z,2.50
2022-08-01T04:43:26.406Z,2.50
2022-08-01T04:44:27.814Z,1.80
2022-08-01T04:45:25.379Z,2.30
2022-08-01T04:46:25.359Z,2.80
2022-08-01T04:47:25.349Z,3.30
2022-08-01T04:48:25.343Z,1.70
2022-08-01T04:49:25.375Z,2.30
2022-08-01T04:50:25.298Z,3.20
2022-08-01T04:51:25.287Z,2.90
2022-08-01T04:52:25.373Z,3.70
2022-08-01T04:53:25.261Z,2.20
2022-08-01T04:54:25.255Z,3.20
2022-08-01T04:55:25.229Z,2.50
2022-08-01T04:56:25.218Z,1.60
2022-08-01T04:57:25.220Z,3.80
2022-08-01T04:58:25.191Z,2.40
2022-08-01T04:59:25.189Z,2.80
2022-08-01T05:00:25.168Z,3.10
2022-08-01T05:01:25.268Z,1.60
2022-08-01T05:02:25.157Z,2.60
2022-08-01T05:03:25.138Z,2.10
2022-08-01T05:04:25.109Z,2.40
2022-08-01T05:05:25.101Z,3.00
2022-08-01T05:06:25.087Z,2.40
2022-08-01T05:07:25.090Z,3.20
2022-08-01T05:08:25.059Z,3.80
2022-08-01T05:09:28.210Z,3.70
2022-08-01T05:10:26.040Z,6.10
2022-08-01T05:11:25.021Z,4.00
2022-08-01T05:12:25.010Z,5.30
2022-08-01T05:13:24.999Z,3.60
2022-08-01T05:14:24.979Z,3.60
2022-08-01T05:15:24.971Z,3.20
2022-08-01T05:16:24.951Z,4.20
2022-08-01T05:17:24.948Z,4.90
2022-08-01T05:18:27.856Z,3.10
2022-08-01T05:19:24.918Z,3.40
2022-08-01T05:20:24.918Z,4.00
2022-08-01T05:21:24.897Z,2.70
2022-08-01T05:22:24.879Z,2.70
2022-08-01T05:23:36.517Z,3.80
2022-08-01T05:24:25.846Z,5.00
2022-08-01T05:25:56.247Z,2.90
2022-08-01T05:26:25.827Z,2.50
2022-08-01T05:27:24.820Z,2.60
2022-08-01T05:28:24.791Z,4.80
2022-08-01T05:29:24.779Z,3.40
2022-08-01T05:30:24.759Z,4.00
2022-08-01T05:31:24.762Z,2.50
2022-08-01T05:32:24.771Z,3.00
2022-08-01T05:33:24.740Z,3.30
2022-08-01T05:34:24.712Z,2.90
2022-08-01T05:35:24.701Z,2.70
2022-08-01T05:36:25.689Z,6.10
2022-08-01T05:37:24.687Z,3.30
2022-08-01T05:38:24.681Z,3.90
2022-08-01T05:39:24.658Z,3.80
2022-08-01T05:40:24.639Z,4.60
2022-08-01T05:41:24.620Z,3.80
2022-08-01T05:42:24.610Z,1.90
2022-08-01T05:43:28.730Z,3.60
2022-08-01T05:44:24.580Z,3.90
2022-08-01T05:45:24.620Z,3.50
2022-08-01T05:46:26.118Z,2.20
2022-08-01T05:47:24.550Z,2.90
2022-08-01T05:48:24.528Z,2.80
2022-08-01T05:49:24.590Z,2.00
2022-08-01T05:50:24.494Z,1.80
2022-08-01T05:51:24.495Z,1.90
2022-08-01T05:52:24.492Z,2.30
2022-08-01T05:53:24.470Z,2.10
2022-08-01T05:54:24.450Z,1.90
2022-08-01T05:55:24.430Z,1.90
2022-08-01T05:56:24.417Z,2.70
2022-08-01T05:57:24.438Z,1.50
2022-08-01T05:58:24.389Z,2.20
2022-08-01T05:59:24.381Z,2.10
2022-08-01T06:00:24.360Z,3.40
2022-08-01T06:01:24.351Z,4.80
2022-08-01T06:02:24.414Z,5.80
2022-08-01T06:03:24.321Z,4.60
2022-08-01T06:04:24.331Z,2.40
2022-08-01T06:05:24.306Z,3.70
2022-08-01T06:06:25.473Z,3.80
2022-08-01T06:07:24.296Z,4.60
2022-08-01T06:08:24.260Z,5.60
2022-08-01T06:09:24.251Z,4.50
2022-08-01T06:10:24.241Z,2.70
2022-08-01T06:11:24.228Z,4.20
2022-08-01T06:12:24.241Z,3.00
2022-08-01T06:13:24.203Z,3.00
2022-08-01T06:14:24.183Z,2.60
2022-08-01T06:15:24.162Z,4.60
2022-08-01T06:16:24.152Z,3.80
2022-08-01T06:17:24.152Z,1.80
2022-08-01T06:18:24.134Z,4.60
2022-08-01T06:19:24.141Z,2.80
2022-08-01T06:20:24.091Z,3.70
2022-08-01T06:21:24.100Z,1.80
2022-08-01T06:22:24.115Z,3.90
2022-08-01T06:23:32.407Z,3.40
2022-08-01T06:24:25.051Z,2.00
2022-08-01T06:25:24.043Z,4.90
2022-08-01T06:26:24.030Z,4.70
2022-08-01T06:27:24.022Z,5.70
2022-08-01T06:28:23.992Z,2.20
2022-08-01T06:29:23.982Z,1.90
2022-08-01T06:30:23.980Z,4.50
2022-08-01T06:31:23.960Z,3.90
2022-08-01T06:32:27.159Z,3.00
2022-08-01T06:33:23.934Z,2.90
2022-08-01T06:34:23.919Z,2.60
2022-08-01T06:35:23.920Z,2.50
2022-08-01T06:36:23.882Z,2.90
2022-08-01T06:37:23.892Z,3.80
2022-08-01T06:38:23.855Z,3.90
2022-08-01T06:39:23.853Z,2.90
2022-08-01T06:40:23.832Z,3.20
2022-08-01T06:41:23.812Z,2.70
2022-08-01T06:42:23.812Z,2.40
2022-08-01T06:43:23.793Z,2.20
2022-08-01T06:44:23.782Z,1.50
2022-08-01T06:45:23.777Z,1.60
2022-08-01T06:46:23.749Z,2.50
2022-08-01T06:47:24.764Z,2.60
2022-08-01T06:48:23.725Z,1.90
2022-08-01T06:49:23.777Z,2.10
2022-08-01T06:50:23.695Z,2.40
2022-08-01T06:51:23.685Z,3.40
2022-08-01T06:52:23.672Z,2.00
2022-08-01T06:53:23.653Z,2.40
2022-08-01T06:54:23.643Z,1.30
2022-08-01T06:55:23.652Z,2.50
2022-08-01T06:56:23.645Z,2.60
2022-08-01T06:57:23.614Z,1.40
2022-08-01T06:58:31.696Z,2.30
2022-08-01T06:59:24.583Z,3.20
2022-08-01T07:00:23.636Z,2.40
2022-08-01T07:01:23.622Z,1.30
2022-08-01T07:02:23.587Z,2.20
2022-08-01T07:03:23.524Z,2.40
2022-08-01T07:04:23.503Z,2.00
2022-08-01T07:05:23.505Z,1.80
2022-08-01T07:06:23.483Z,1.70
2022-08-01T07:07:23.505Z,3.70
2022-08-01T07:08:23.454Z,1.50
2022-08-01T07:09:23.433Z,3.60
2022-08-01T07:10:23.470Z,3.30
2022-08-01T07:11:23.416Z,2.80
2022-08-01T07:12:23.414Z,2.30
2022-08-01T07:13:23.405Z,2.80
2022-08-01T07:14:24.373Z,1.20
2022-08-01T07:15:23.371Z,1.30
2022-08-01T07:16:23.356Z,2.30
2022-08-01T07:17:23.344Z,1.10
2022-08-01T07:18:23.325Z,4.90
2022-08-01T07:19:23.315Z,4.30
2022-08-01T07:20:23.339Z,2.30
2022-08-01T07:21:40.741Z,3.00
2022-08-01T07:22:24.283Z,2.00
2022-08-01T07:23:30.468Z,1.70
2022-08-01T07:24:24.243Z,2.00
2022-08-01T07:25:23.223Z,1.20
2022-08-01T07:26:23.226Z,2.50
2022-08-01T07:27:25.617Z,6.00
2022-08-01T07:28:23.194Z,2.00
2022-08-01T07:29:23.193Z,1.60
2022-08-01T07:30:23.188Z,1.00
2022-08-01T07:31:23.145Z,1.20
2022-08-01T07:32:23.158Z,1.20
2022-08-01T07:33:23.135Z,1.30
2022-08-01T07:34:23.119Z,1.40
2022-08-01T07:35:23.094Z,1.10
2022-08-01T07:36:23.095Z,1.70
2022-08-01T07:37:47.797Z,2.00
2022-08-01T07:38:24.065Z,1.90
2022-08-01T07:39:23.045Z,2.10
2022-08-01T07:40:23.025Z,2.70
2022-08-01T07:41:53.042Z,1.30
2022-08-01T07:42:24.025Z,1.00
2022-08-01T07:43:22.996Z,2.60
2022-08-01T07:44:22.975Z,1.30
2022-08-01T07:45:22.966Z,2.70
2022-08-01T07:46:22.956Z,1.60
2022-08-01T07:47:22.957Z,2.10
2022-08-01T07:48:22.926Z,2.70
2022-08-01T07:49:23.019Z,1.10
2022-08-01T07:50:22.905Z,2.00
2022-08-01T07:51:22.894Z,3.00
2022-08-01T07:52:22.886Z,2.10
2022-08-01T07:53:22.858Z,1.80
2022-08-01T07:54:22.855Z,2.80
2022-08-01T07:55:23.828Z,3.20
2022-08-01T07:56:22.820Z,3.50
2022-08-01T07:57:22.816Z,2.10
2022-08-01T07:58:22.801Z,2.50
2022-08-01T07:59:26.219Z,2.20
2022-08-01T08:00:22.766Z,2.80
2022-08-01T08:01:22.779Z,2.50
2022-08-01T08:02:22.781Z,1.90
2022-08-01T08:03:22.727Z,2.10
2022-08-01T08:04:22.729Z,2.00
2022-08-01T08:05:57.817Z,1.80
2022-08-01T08:06:23.687Z,1.40
2022-08-01T08:07:22.698Z,2.00
2022-08-01T08:08:22.659Z,2.50
2022-08-01T08:09:22.646Z,1.50
2022-08-01T08:10:22.650Z,0.90
2022-08-01T08:11:22.619Z,1.20
2022-08-01T08:12:28.847Z,2.40
2022-08-01T08:13:23.601Z,1.20
2022-08-01T08:14:22.577Z,2.20
2022-08-01T08:15:23.559Z,1.50
2022-08-01T08:16:22.565Z,3.10
2022-08-01T08:17:22.571Z,2.90
2022-08-01T08:18:22.539Z,1.10
2022-08-01T08:19:22.510Z,1.50
2022-08-01T08:20:23.509Z,1.60
2022-08-01T08:21:22.495Z,1.20
2022-08-01T08:22:22.488Z,3.30
2022-08-01T08:23:41.356Z,3.30
2022-08-01T08:24:26.421Z,3.90
2022-08-01T08:25:22.440Z,1.70
2022-08-01T08:26:22.472Z,3.70
2022-08-01T08:27:22.419Z,5.30
2022-08-01T08:28:26.431Z,4.00
2022-08-01T08:29:23.391Z,4.50
2022-08-01T08:30:22.394Z,2.20
2022-08-01T08:31:25.393Z,1.70
2022-08-01T08:32:23.371Z,1.00
2022-08-01T08:33:22.329Z,1.50
2022-08-01T08:34:22.319Z,1.40
2022-08-01T08:35:40.052Z,0.90
2022-08-01T08:36:31.510Z,1.20
2022-08-01T08:37:23.300Z,1.70
2022-08-01T08:38:28.515Z,1.40
2022-08-01T08:39:23.255Z,3.40
2022-08-01T08:40:22.250Z,4.20
2022-08-01T08:41:22.230Z,4.60
2022-08-01T08:42:22.222Z,2.00
2022-08-01T08:43:22.200Z,2.70
2022-08-01T08:44:22.207Z,1.00
2022-08-01T08:45:22.170Z,1.00
2022-08-01T08:46:28.207Z,1.20
2022-08-01T08:47:23.153Z,1.70
2022-08-01T08:48:22.161Z,2.40
2022-08-01T08:49:23.209Z,2.20
2022-08-01T08:50:22.111Z,1.00
2022-08-01T08:51:22.111Z,0.90
2022-08-01T08:52:22.097Z,1.30
2022-08-01T08:53:22.071Z,1.50
2022-08-01T08:54:22.061Z,0.90
2022-08-01T08:55:23.050Z,0.50
2022-08-01T08:56:22.066Z,0.60
2022-08-01T08:57:22.013Z,1.40
2022-08-01T08:58:24.189Z,1.10
2022-08-01T08:59:22.994Z,1.30
2022-08-01T09:00:21.973Z,1.40
2022-08-01T09:01:22.994Z,2.20
2022-08-01T09:02:21.957Z,2.20
2022-08-01T09:03:21.991Z,2.70
2022-08-01T09:04:21.923Z,1.40
2022-08-01T09:05:21.904Z,0.90
2022-08-01T09:06:21.919Z,1.30
2022-08-01T09:07:21.885Z,0.60
2022-08-01T09:08:21.908Z,1.70
2022-08-01T09:09:21.876Z,1.20
2022-08-01T09:10:22.042Z,1.10
2022-08-01T09:11:23.045Z,2.40
2022-08-01T09:12:21.826Z,0.90
2022-08-01T09:13:21.817Z,2.30
2022-08-01T09:14:21.816Z,3.70
2022-08-01T09:15:21.785Z,1.10
2022-08-01T09:16:21.787Z,1.50
2022-08-01T09:17:21.797Z,1.20
2022-08-01T09:18:21.745Z,1.20
2022-08-01T09:19:39.774Z,3.20
2022-08-01T09:20:22.747Z,1.10
2022-08-01T09:21:21.722Z,1.00
2022-08-01T09:22:21.696Z,1.30
2022-08-01T09:23:21.705Z,1.80
2022-08-01T09:24:29.707Z,1.50
2022-08-01T09:25:22.655Z,1.00
2022-08-01T09:26:22.647Z,2.10
2022-08-01T09:27:22.285Z,2.60
2022-08-01T09:28:21.618Z,1.00
2022-08-01T09:29:37.461Z,0.70
2022-08-01T09:30:23.690Z,0.60
2022-08-01T09:31:21.584Z,1.30
2022-08-01T09:32:21.568Z,1.10
2022-08-01T09:33:22.291Z,1.60
2022-08-01T09:34:21.567Z,0.80
2022-08-01T09:35:21.527Z,1.40
2022-08-01T09:36:21.527Z,0.70
2022-08-01T09:37:24.160Z,1.10
2022-08-01T09:38:21.486Z,1.50
2022-08-01T09:39:21.498Z,1.50
2022-08-01T09:40:21.460Z,3.20
2022-08-01T09:41:21.458Z,0.80
2022-08-01T09:42:21.468Z,1.70
2022-08-01T09:43:22.417Z,1.70
2022-08-01T09:44:31.396Z,0.70
2022-08-01T09:45:23.786Z,1.00
2022-08-01T09:46:21.388Z,0.90
2022-08-01T09:47:21.372Z,0.80
2022-08-01T09:48:22.525Z,0.70
2022-08-01T09:49:22.380Z,0.80
2022-08-01T09:50:21.353Z,1.10
2022-08-01T09:51:58.525Z,1.40
2022-08-01T09:52:25.724Z,1.60
2022-08-01T09:53:29.618Z,0.80
2022-08-01T09:54:22.302Z,1.00
2022-08-01T09:55:22.261Z,1.10
2022-08-01T09:56:21.264Z,2.20
2022-08-01T09:57:21.234Z,1.10
2022-08-01T09:58:21.229Z,1.30
2022-08-01T09:59:21.231Z,0.80
2022-08-01T10:00:43.791Z,1.10
2022-08-01T10:01:22.197Z,1.10
2022-08-01T10:02:21.211Z,0.80
2022-08-01T10:03:21.213Z,1.10
2022-08-01T10:04:21.159Z,1.70
2022-08-01T10:05:21.485Z,1.90
2022-08-01T10:06:21.164Z,1.20
2022-08-01T10:07:21.141Z,1.10
2022-08-01T10:08:23.152Z,2.40
2022-08-01T10:09:21.092Z,1.50
2022-08-01T10:10:21.071Z,0.50
2022-08-01T10:11:22.081Z,1.00
2022-08-01T10:12:22.054Z,0.90
2022-08-01T10:13:21.033Z,0.40
2022-08-01T10:14:21.021Z,0.50
2022-08-01T10:15:21.002Z,1.90
2022-08-01T10:16:20.992Z,0.30
2022-08-01T10:17:20.976Z,0.20
2022-08-01T10:18:25.933Z,0.60
2022-08-01T10:19:21.954Z,0.50
2022-08-01T10:20:29.024Z,0.30
2022-08-01T10:21:53.161Z,0.70
2022-08-01T10:22:21.915Z,0.50
2022-08-01T10:23:20.906Z,0.50
2022-08-01T10:24:20.891Z,1.50
2022-08-01T10:25:42.468Z,0.30
2022-08-01T10:26:21.878Z,1.10
2022-08-01T10:27:21.487Z,1.00
2022-08-01T10:28:21.306Z,1.30
2022-08-01T10:29:59.062Z,0.30
2022-08-01T10:30:23.347Z,0.80
2022-08-01T10:31:20.822Z,1.20
2022-08-01T10:32:21.800Z,0.60
2022-08-01T10:33:50.451Z,2.20
2022-08-01T10:34:23.084Z,1.40
2022-08-01T10:35:45.724Z,1.00
2022-08-01T10:36:21.735Z,1.80
2022-08-01T10:37:20.728Z,0.60
2022-08-01T10:38:20.716Z,3.20
2022-08-01T10:39:20.686Z,1.60
2022-08-01T10:40:30.417Z,1.60
2022-08-01T10:41:21.671Z,0.70
2022-08-01T10:42:20.661Z,1.30
2022-08-01T10:43:21.789Z,0.70
2022-08-01T10:44:20.616Z,1.50
2022-08-01T10:45:20.621Z,0.80
2022-08-01T10:46:20.689Z,1.80
2022-08-01T10:47:23.264Z,2.50
2022-08-01T10:48:21.570Z,3.00
2022-08-01T10:49:20.609Z,2.80
2022-08-01T10:50:21.791Z,1.00
2022-08-01T10:51:21.591Z,0.30
2022-08-01T10:52:20.523Z,1.00
2022-08-01T10:53:24.045Z,1.50
2022-08-01T10:54:21.488Z,0.90
2022-08-01T10:55:20.483Z,1.20
2022-08-01T10:56:20.503Z,1.50
2022-08-01T10:57:23.094Z,3.00
2022-08-01T10:58:20.445Z,1.40
2022-08-01T10:59:29.193Z,3.30
2022-08-01T11:00:21.440Z,1.10
2022-08-01T11:01:20.619Z,0.70
2022-08-01T11:02:20.427Z,0.60
2022-08-01T11:03:35.836Z,1.00
2022-08-01T11:04:21.401Z,1.60
2022-08-01T11:05:20.370Z,0.70
2022-08-01T11:06:20.354Z,0.30
2022-08-01T11:07:20.322Z,1.90
2022-08-01T11:08:20.314Z,0.80
2022-08-01T11:09:20.313Z,0.30
2022-08-01T11:10:20.306Z,1.10
2022-08-01T11:11:20.979Z,0.30
2022-08-01T11:12:24.506Z,0.70
2022-08-01T11:13:21.245Z,0.30
2022-08-01T11:14:26.349Z,0.50
2022-08-01T11:15:28.796Z,0.50
2022-08-01T11:16:24.139Z,0.20
2022-08-01T11:17:20.201Z,0.30
2022-08-01T11:18:20.203Z,1.10
2022-08-01T11:19:21.176Z,0.80
2022-08-01T11:20:20.174Z,0.70
2022-08-01T11:21:58.919Z,0.70
2022-08-01T11:22:25.252Z,0.40
2022-08-01T11:23:20.129Z,1.40
2022-08-01T11:24:20.113Z,0.50
2022-08-01T11:25:20.113Z,0.50
2022-08-01T11:26:28.818Z,1.10
2022-08-01T11:27:23.802Z,1.00
2022-08-01T11:28:29.103Z,1.30
2022-08-01T11:29:22.614Z,1.00
2022-08-01T11:30:21.350Z,1.90
2022-08-01T11:31:20.023Z,1.00
2022-08-01T11:32:20.001Z,1.10
2022-08-01T11:33:20.045Z,1.20
2022-08-01T11:34:20.056Z,1.50
2022-08-01T11:35:20.003Z,1.10
2022-08-01T11:36:31.987Z,2.00
2022-08-01T11:37:20.937Z,1.00
2022-08-01T11:38:19.927Z,0.60
2022-08-01T11:39:19.947Z,1.50
2022-08-01T11:40:19.918Z,1.30
2022-08-01T11:41:19.910Z,0.90
2022-08-01T11:42:19.879Z,0.80
2022-08-01T11:43:19.877Z,0.70
2022-08-01T11:44:20.901Z,0.50
2022-08-01T11:45:19.876Z,0.50
2022-08-01T11:46:19.856Z,0.70
2022-08-01T11:47:21.191Z,1.20
2022-08-01T11:48:19.821Z,0.50
2022-08-01T11:49:19.840Z,0.70
2022-08-01T11:50:19.826Z,1.10
2022-08-01T11:51:25.400Z,0.90
2022-08-01T11:52:20.793Z,0.70
2022-08-01T11:53:19.779Z,0.50
2022-08-01T11:54:35.155Z,0.90
2022-08-01T11:55:20.722Z,1.70
2022-08-01T11:56:19.723Z,2.50
2022-08-01T11:57:19.723Z,1.50
2022-08-01T11:58:22.217Z,0.50
2022-08-01T11:59:20.680Z,1.40
2022-08-01T12:00:19.710Z,0.90
2022-08-01T12:01:19.641Z,2.20
2022-08-01T12:02:19.660Z,5.40
2022-08-01T12:03:33.022Z,0.90
2022-08-01T12:04:20.623Z,1.10
2022-08-01T12:05:19.589Z,1.90
2022-08-01T12:06:19.574Z,1.20
2022-08-01T12:07:19.571Z,0.80
2022-08-01T12:08:19.551Z,1.40
2022-08-01T12:09:19.542Z,1.10
2022-08-01T12:10:19.511Z,1.80
2022-08-01T12:11:19.502Z,0.90
2022-08-01T12:12:19.513Z,0.60
2022-08-01T12:13:19.509Z,1.00
2022-08-01T12:14:19.511Z,1.20
2022-08-01T12:15:19.463Z,1.40
2022-08-01T12:16:19.444Z,1.40
2022-08-01T12:17:19.434Z,1.10
2022-08-01T12:18:19.423Z,1.60
2022-08-01T12:19:19.404Z,1.20
2022-08-01T12:20:19.393Z,2.20
2022-08-01T12:21:19.386Z,0.70
2022-08-01T12:22:19.364Z,0.70
2022-08-01T12:23:19.368Z,1.70
2022-08-01T12:24:19.335Z,0.90
2022-08-01T12:25:19.326Z,1.10
2022-08-01T12:26:29.245Z,1.00
2022-08-01T12:27:20.303Z,0.80
2022-08-01T12:28:19.294Z,0.70
2022-08-01T12:29:19.281Z,0.70
2022-08-01T12:30:19.254Z,1.20
2022-08-01T12:31:19.265Z,0.80
2022-08-01T12:32:19.235Z,0.80
2022-08-01T12:33:20.237Z,1.60
2022-08-01T12:34:19.207Z,0.90
2022-08-01T12:35:19.195Z,0.80
2022-08-01T12:36:19.186Z,1.30
2022-08-01T12:37:19.173Z,0.80
2022-08-01T12:38:19.166Z,2.80
2022-08-01T12:39:19.194Z,0.60
2022-08-01T12:40:19.127Z,0.70
2022-08-01T12:41:19.135Z,1.20
2022-08-01T12:42:19.116Z,1.50
2022-08-01T12:43:26.875Z,0.60
2022-08-01T12:44:20.095Z,0.90
2022-08-01T12:45:19.067Z,1.90
2022-08-01T12:46:19.056Z,1.00
2022-08-01T12:47:19.047Z,1.00
2022-08-01T12:48:19.038Z,0.70
2022-08-01T12:49:19.087Z,0.50
2022-08-01T12:50:19.003Z,0.60
2022-08-01T12:51:18.998Z,1.70
2022-08-01T12:52:18.978Z,1.00
2022-08-01T12:53:18.980Z,1.10
2022-08-01T12:54:18.959Z,0.90
2022-08-01T12:55:18.950Z,0.80
2022-08-01T12:56:18.928Z,2.10
2022-08-01T12:57:18.920Z,0.60
2022-08-01T12:58:18.909Z,1.30
2022-08-01T12:59:18.898Z,0.80
2022-08-01T13:00:18.876Z,1.40
2022-08-01T13:01:18.962Z,2.30
2022-08-01T13:02:18.850Z,1.00
2022-08-01T13:03:18.851Z,0.90
2022-08-01T13:04:18.820Z,1.30
2022-08-01T13:05:18.819Z,0.60
2022-08-01T13:06:18.798Z,1.00
2022-08-01T13:07:18.789Z,1.00
2022-08-01T13:08:18.786Z,1.00
2022-08-01T13:09:18.774Z,1.20
2022-08-01T13:10:18.741Z,1.90
2022-08-01T13:11:18.732Z,1.40
2022-08-01T13:12:18.724Z,2.60
2022-08-01T13:13:28.368Z,0.90
2022-08-01T13:14:19.691Z,2.10
2022-08-01T13:15:18.698Z,1.70
2022-08-01T13:16:31.082Z,1.10
2022-08-01T13:17:19.652Z,2.20
2022-08-01T13:18:18.658Z,1.40